Terminal Aerodrome Forecast
Issued by NWS

Home | Current Version | Previous Version | Text Only | Print | Product List | Glossary On
Versions: 1 2 3 4 5 6 7 8 9 10 11 12 13 14 15 16 17
000
FTUS46 KOTX 211136
TAFPUW
TAF
KPUW 211136Z 2112/2212 09006KT P6SM -RA BKN020 OVC035
     FM211300 10008KT 6SM -RA OVC020
     FM212000 24013G22KT 3SM -RA OVC012
     FM220200 24013G22KT 6SM -SN SCT012 OVC025
     FM220700 24012G20KT P6SM BKN100=

USA.gov is the U.S. government's official web portal to all federal, state and local government web resources and services.